sensor_id;sensor_type;location;lat;lon;timestamp;P1;durP1;ratioP1;P2;durP2;ratioP2
46593;SDS011;35342;52.378;4.648;2023-03-01T00:01:31;13.25;;;8.05;;
46593;SDS011;35342;52.378;4.648;2023-03-01T00:03:58;13.57;;;7.00;;
46593;SDS011;35342;52.378;4.648;2023-03-01T00:06:24;12.02;;;8.20;;
46593;SDS011;35342;52.378;4.648;2023-03-01T00:08:51;9.88;;;7.45;;
46593;SDS011;35342;52.378;4.648;2023-03-01T00:11:19;11.40;;;7.82;;
46593;SDS011;35342;52.378;4.648;2023-03-01T00:13:51;14.60;;;8.30;;
46593;SDS011;35342;52.378;4.648;2023-03-01T00:16:23;14.80;;;7.40;;
46593;SDS011;35342;52.378;4.648;2023-03-01T00:18:55;12.27;;;8.57;;
46593;SDS011;35342;52.378;4.648;2023-03-01T00:21:22;10.32;;;7.30;;
46593;SDS011;35342;52.378;4.648;2023-03-01T00:23:49;13.80;;;8.80;;
46593;SDS011;35342;52.378;4.648;2023-03-01T00:26:16;12.05;;;8.52;;
46593;SDS011;35342;52.378;4.648;2023-03-01T00:28:44;11.35;;;8.23;;
46593;SDS011;35342;52.378;4.648;2023-03-01T00:31:11;13.15;;;9.32;;
46593;SDS011;35342;52.378;4.648;2023-03-01T00:33:45;12.65;;;8.98;;
46593;SDS011;35342;52.378;4.648;2023-03-01T00:36:12;13.13;;;8.52;;
46593;SDS011;35342;52.378;4.648;2023-03-01T00:38:44;14.65;;;8.77;;
46593;SDS011;35342;52.378;4.648;2023-03-01T00:41:12;11.75;;;8.35;;
46593;SDS011;35342;52.378;4.648;2023-03-01T00:43:40;13.02;;;8.40;;
46593;SDS011;35342;52.378;4.648;2023-03-01T00:46:08;13.95;;;8.65;;
46593;SDS011;35342;52.378;4.648;2023-03-01T00:48:38;14.43;;;9.68;;
46593;SDS011;35342;52.378;4.648;2023-03-01T00:51:08;12.02;;;8.95;;
46593;SDS011;35342;52.378;4.648;2023-03-01T00:53:46;12.52;;;8.60;;
46593;SDS011;35342;52.378;4.648;2023-03-01T00:56:14;13.20;;;9.18;;
46593;SDS011;35342;52.378;4.648;2023-03-01T00:58:41;14.80;;;9.13;;
46593;SDS011;35342;52.378;4.648;2023-03-01T01:01:11;14.10;;;9.50;;
46593;SDS011;35342;52.378;4.648;2023-03-01T01:03:46;12.93;;;8.80;;
46593;SDS011;35342;52.378;4.648;2023-03-01T01:06:19;12.15;;;9.38;;
46593;SDS011;35342;52.378;4.648;2023-03-01T01:08:48;12.80;;;8.75;;
46593;SDS011;35342;52.378;4.648;2023-03-01T01:11:15;14.43;;;9.02;;
46593;SDS011;35342;52.378;4.648;2023-03-01T01:13:43;13.75;;;9.45;;
46593;SDS011;35342;52.378;4.648;2023-03-01T01:16:11;16.45;;;9.65;;
46593;SDS011;35342;52.378;4.648;2023-03-01T01:18:37;14.50;;;9.00;;
46593;SDS011;35342;52.378;4.648;2023-03-01T01:21:04;13.93;;;9.90;;
46593;SDS011;35342;52.378;4.648;2023-03-01T01:23:39;14.85;;;9.40;;
46593;SDS011;35342;52.378;4.648;2023-03-01T01:26:08;14.13;;;9.27;;
46593;SDS011;35342;52.378;4.648;2023-03-01T01:28:46;13.68;;;9.10;;
46593;SDS011;35342;52.378;4.648;2023-03-01T01:31:13;13.45;;;9.13;;
46593;SDS011;35342;52.378;4.648;2023-03-01T01:33:39;12.25;;;9.30;;
46593;SDS011;35342;52.378;4.648;2023-03-01T01:36:06;14.80;;;9.75;;
46593;SDS011;35342;52.378;4.648;2023-03-01T01:38:33;14.02;;;8.98;;
46593;SDS011;35342;52.378;4.648;2023-03-01T01:41:00;15.45;;;10.25;;
46593;SDS011;35342;52.378;4.648;2023-03-01T01:43:27;12.68;;;8.98;;
46593;SDS011;35342;52.378;4.648;2023-03-01T01:49:03;13.90;;;9.48;;
46593;SDS011;35342;52.378;4.648;2023-03-01T01:51:39;13.77;;;9.20;;
46593;SDS011;35342;52.378;4.648;2023-03-01T01:54:10;18.27;;;10.85;;
46593;SDS011;35342;52.378;4.648;2023-03-01T01:56:42;14.35;;;9.40;;
46593;SDS011;35342;52.378;4.648;2023-03-01T01:59:14;13.60;;;9.55;;
46593;SDS011;35342;52.378;4.648;2023-03-01T02:01:40;12.88;;;9.68;;
46593;SDS011;35342;52.378;4.648;2023-03-01T02:04:06;15.43;;;10.98;;
46593;SDS011;35342;52.378;4.648;2023-03-01T02:06:33;16.58;;;11.02;;
46593;SDS011;35342;52.378;4.648;2023-03-01T02:09:07;18.30;;;10.98;;
46593;SDS011;35342;52.378;4.648;2023-03-01T02:11:38;15.80;;;10.93;;
46593;SDS011;35342;52.378;4.648;2023-03-01T02:14:04;21.58;;;9.95;;
46593;SDS011;35342;52.378;4.648;2023-03-01T02:16:30;16.95;;;10.55;;
46593;SDS011;35342;52.378;4.648;2023-03-01T02:18:57;17.75;;;11.88;;
46593;SDS011;35342;52.378;4.648;2023-03-01T02:24:42;15.70;;;10.63;;
46593;SDS011;35342;52.378;4.648;2023-03-01T02:27:10;15.25;;;11.10;;
46593;SDS011;35342;52.378;4.648;2023-03-01T02:29:36;19.55;;;11.40;;
46593;SDS011;35342;52.378;4.648;2023-03-01T02:32:03;23.20;;;11.70;;
46593;SDS011;35342;52.378;4.648;2023-03-01T02:34:30;20.50;;;11.77;;
46593;SDS011;35342;52.378;4.648;2023-03-01T02:37:11;19.35;;;11.25;;
46593;SDS011;35342;52.378;4.648;2023-03-01T02:39:48;21.10;;;12.85;;
46593;SDS011;35342;52.378;4.648;2023-03-01T02:42:24;17.88;;;12.10;;
46593;SDS011;35342;52.378;4.648;2023-03-01T02:44:55;22.55;;;13.43;;
46593;SDS011;35342;52.378;4.648;2023-03-01T02:47:21;18.80;;;12.30;;
46593;SDS011;35342;52.378;4.648;2023-03-01T02:49:47;20.50;;;12.13;;
46593;SDS011;35342;52.378;4.648;2023-03-01T02:52:22;21.73;;;12.38;;
46593;SDS011;35342;52.378;4.648;2023-03-01T02:55:16;17.63;;;11.98;;
46593;SDS011;35342;52.378;4.648;2023-03-01T02:57:44;23.80;;;12.68;;
46593;SDS011;35342;52.378;4.648;2023-03-01T03:00:17;21.60;;;11.60;;
46593;SDS011;35342;52.378;4.648;2023-03-01T03:02:54;23.30;;;12.75;;
46593;SDS011;35342;52.378;4.648;2023-03-01T03:05:23;20.05;;;12.63;;
46593;SDS011;35342;52.378;4.648;2023-03-01T03:07:52;17.08;;;11.25;;
46593;SDS011;35342;52.378;4.648;2023-03-01T03:10:26;17.48;;;12.35;;
46593;SDS011;35342;52.378;4.648;2023-03-01T03:12:59;19.60;;;11.82;;
46593;SDS011;35342;52.378;4.648;2023-03-01T03:15:32;21.58;;;12.20;;
46593;SDS011;35342;52.378;4.648;2023-03-01T03:18:02;17.83;;;11.70;;
46593;SDS011;35342;52.378;4.648;2023-03-01T03:20:32;22.73;;;11.95;;
46593;SDS011;35342;52.378;4.648;2023-03-01T03:22:58;20.08;;;12.68;;
46593;SDS011;35342;52.378;4.648;2023-03-01T03:25:25;21.70;;;12.98;;
46593;SDS011;35342;52.378;4.648;2023-03-01T03:27:53;21.55;;;12.73;;
46593;SDS011;35342;52.378;4.648;2023-03-01T03:30:21;24.05;;;13.95;;
46593;SDS011;35342;52.378;4.648;2023-03-01T03:32:50;19.40;;;12.48;;
46593;SDS011;35342;52.378;4.648;2023-03-01T03:35:20;18.73;;;12.13;;
46593;SDS011;35342;52.378;4.648;2023-03-01T03:37:50;20.08;;;12.10;;
46593;SDS011;35342;52.378;4.648;2023-03-01T03:40:41;20.58;;;12.32;;
46593;SDS011;35342;52.378;4.648;2023-03-01T03:43:13;22.52;;;12.25;;
46593;SDS011;35342;52.378;4.648;2023-03-01T03:45:45;20.75;;;13.55;;
46593;SDS011;35342;52.378;4.648;2023-03-01T03:48:13;20.08;;;11.98;;
46593;SDS011;35342;52.378;4.648;2023-03-01T03:50:40;22.48;;;13.38;;
46593;SDS011;35342;52.378;4.648;2023-03-01T03:53:08;21.58;;;12.90;;
46593;SDS011;35342;52.378;4.648;2023-03-01T03:55:37;19.42;;;13.40;;
46593;SDS011;35342;52.378;4.648;2023-03-01T03:58:04;22.52;;;13.77;;
46593;SDS011;35342;52.378;4.648;2023-03-01T04:00:33;18.23;;;12.02;;
46593;SDS011;35342;52.378;4.648;2023-03-01T04:03:02;20.58;;;13.80;;
46593;SDS011;35342;52.378;4.648;2023-03-01T04:05:28;23.38;;;13.90;;
46593;SDS011;35342;52.378;4.648;2023-03-01T04:07:55;20.80;;;12.00;;
46593;SDS011;35342;52.378;4.648;2023-03-01T04:10:28;19.17;;;12.90;;
46593;SDS011;35342;52.378;4.648;2023-03-01T04:12:57;21.30;;;14.52;;
46593;SDS011;35342;52.378;4.648;2023-03-01T04:15:23;15.85;;;10.95;;
46593;SDS011;35342;52.378;4.648;2023-03-01T04:17:51;23.13;;;14.48;;
46593;SDS011;35342;52.378;4.648;2023-03-01T04:20:23;16.33;;;12.32;;
46593;SDS011;35342;52.378;4.648;2023-03-01T04:22:58;19.00;;;13.35;;
46593;SDS011;35342;52.378;4.648;2023-03-01T04:25:57;24.10;;;13.77;;
46593;SDS011;35342;52.378;4.648;2023-03-01T04:28:31;21.10;;;12.57;;
46593;SDS011;35342;52.378;4.648;2023-03-01T04:31:06;22.35;;;13.32;;
46593;SDS011;35342;52.378;4.648;2023-03-01T04:33:39;19.40;;;14.15;;
46593;SDS011;35342;52.378;4.648;2023-03-01T04:36:10;23.38;;;13.70;;
46593;SDS011;35342;52.378;4.648;2023-03-01T04:38:38;19.70;;;12.73;;
46593;SDS011;35342;52.378;4.648;2023-03-01T04:41:05;20.63;;;13.23;;
46593;SDS011;35342;52.378;4.648;2023-03-01T04:43:34;22.40;;;13.55;;
46593;SDS011;35342;52.378;4.648;2023-03-01T04:46:03;23.55;;;14.43;;
46593;SDS011;35342;52.378;4.648;2023-03-01T04:48:32;26.95;;;14.23;;
46593;SDS011;35342;52.378;4.648;2023-03-01T04:50:58;32.53;;;12.45;;
46593;SDS011;35342;52.378;4.648;2023-03-01T04:53:25;56.35;;;14.45;;
46593;SDS011;35342;52.378;4.648;2023-03-01T04:55:53;76.88;;;15.20;;
46593;SDS011;35342;52.378;4.648;2023-03-01T04:58:20;85.88;;;14.55;;
46593;SDS011;35342;52.378;4.648;2023-03-01T05:00:51;59.40;;;13.18;;
46593;SDS011;35342;52.378;4.648;2023-03-01T05:03:17;83.68;;;14.98;;
46593;SDS011;35342;52.378;4.648;2023-03-01T05:05:44;97.28;;;15.50;;
46593;SDS011;35342;52.378;4.648;2023-03-01T05:08:13;82.63;;;14.38;;
46593;SDS011;35342;52.378;4.648;2023-03-01T05:10:47;89.80;;;13.52;;
46593;SDS011;35342;52.378;4.648;2023-03-01T05:13:18;50.00;;;12.40;;
46593;SDS011;35342;52.378;4.648;2023-03-01T05:15:49;52.17;;;14.30;;
46593;SDS011;35342;52.378;4.648;2023-03-01T05:18:21;55.88;;;11.60;;
46593;SDS011;35342;52.378;4.648;2023-03-01T05:20:51;65.72;;;10.82;;
46593;SDS011;35342;52.378;4.648;2023-03-01T05:23:26;35.10;;;11.43;;
46593;SDS011;35342;52.378;4.648;2023-03-01T05:25:52;48.47;;;10.63;;
46593;SDS011;35342;52.378;4.648;2023-03-01T05:28:18;64.15;;;11.20;;
46593;SDS011;35342;52.378;4.648;2023-03-01T05:30:45;45.55;;;11.38;;
46593;SDS011;35342;52.378;4.648;2023-03-01T05:33:11;67.57;;;12.40;;
46593;SDS011;35342;52.378;4.648;2023-03-01T05:35:41;48.60;;;10.38;;
46593;SDS011;35342;52.378;4.648;2023-03-01T05:38:09;63.38;;;11.63;;
46593;SDS011;35342;52.378;4.648;2023-03-01T05:40:40;123.05;;;12.85;;
46593;SDS011;35342;52.378;4.648;2023-03-01T05:43:06;100.43;;;12.73;;
46593;SDS011;35342;52.378;4.648;2023-03-01T05:45:33;94.80;;;13.38;;
46593;SDS011;35342;52.378;4.648;2023-03-01T05:48:02;41.75;;;11.18;;
46593;SDS011;35342;52.378;4.648;2023-03-01T05:50:31;43.50;;;12.25;;
46593;SDS011;35342;52.378;4.648;2023-03-01T05:53:02;24.25;;;9.95;;
46593;SDS011;35342;52.378;4.648;2023-03-01T05:55:33;24.02;;;10.63;;
46593;SDS011;35342;52.378;4.648;2023-03-01T05:58:00;30.85;;;10.25;;
46593;SDS011;35342;52.378;4.648;2023-03-01T06:00:29;30.70;;;11.38;;
46593;SDS011;35342;52.378;4.648;2023-03-01T06:02:56;39.60;;;10.55;;
46593;SDS011;35342;52.378;4.648;2023-03-01T06:05:24;39.95;;;10.38;;
46593;SDS011;35342;52.378;4.648;2023-03-01T06:07:51;28.98;;;9.25;;
46593;SDS011;35342;52.378;4.648;2023-03-01T06:10:18;37.30;;;9.77;;
46593;SDS011;35342;52.378;4.648;2023-03-01T06:12:46;53.88;;;10.52;;
46593;SDS011;35342;52.378;4.648;2023-03-01T06:15:13;32.97;;;11.15;;
46593;SDS011;35342;52.378;4.648;2023-03-01T06:17:42;48.08;;;11.40;;
46593;SDS011;35342;52.378;4.648;2023-03-01T06:20:12;39.90;;;10.18;;
46593;SDS011;35342;52.378;4.648;2023-03-01T06:22:39;35.60;;;10.95;;
46593;SDS011;35342;52.378;4.648;2023-03-01T06:25:06;35.78;;;10.98;;
46593;SDS011;35342;52.378;4.648;2023-03-01T06:27:34;27.73;;;10.38;;
46593;SDS011;35342;52.378;4.648;2023-03-01T06:30:00;40.85;;;13.57;;
46593;SDS011;35342;52.378;4.648;2023-03-01T06:32:26;29.80;;;12.13;;
46593;SDS011;35342;52.378;4.648;2023-03-01T06:34:52;35.13;;;12.63;;
46593;SDS011;35342;52.378;4.648;2023-03-01T06:37:18;46.55;;;13.23;;
46593;SDS011;35342;52.378;4.648;2023-03-01T06:39:44;42.63;;;13.80;;
46593;SDS011;35342;52.378;4.648;2023-03-01T06:42:10;37.42;;;12.75;;
46593;SDS011;35342;52.378;4.648;2023-03-01T06:44:36;41.45;;;13.77;;
46593;SDS011;35342;52.378;4.648;2023-03-01T06:47:02;63.88;;;12.93;;
46593;SDS011;35342;52.378;4.648;2023-03-01T06:49:28;46.97;;;13.70;;
46593;SDS011;35342;52.378;4.648;2023-03-01T06:51:55;25.63;;;13.45;;
46593;SDS011;35342;52.378;4.648;2023-03-01T06:54:21;30.95;;;13.38;;
46593;SDS011;35342;52.378;4.648;2023-03-01T06:56:48;41.55;;;13.63;;
46593;SDS011;35342;52.378;4.648;2023-03-01T06:59:14;40.47;;;12.88;;
46593;SDS011;35342;52.378;4.648;2023-03-01T07:01:41;32.53;;;12.68;;
46593;SDS011;35342;52.378;4.648;2023-03-01T07:04:07;22.10;;;12.82;;
46593;SDS011;35342;52.378;4.648;2023-03-01T07:06:33;28.45;;;13.55;;
46593;SDS011;35342;52.378;4.648;2023-03-01T07:08:58;25.13;;;13.75;;
46593;SDS011;35342;52.378;4.648;2023-03-01T07:11:24;36.25;;;16.25;;
46593;SDS011;35342;52.378;4.648;2023-03-01T07:13:50;95.68;;;19.55;;
46593;SDS011;35342;52.378;4.648;2023-03-01T07:16:16;68.97;;;18.20;;
46593;SDS011;35342;52.378;4.648;2023-03-01T07:18:42;84.38;;;20.95;;
46593;SDS011;35342;52.378;4.648;2023-03-01T07:21:09;67.68;;;18.25;;
46593;SDS011;35342;52.378;4.648;2023-03-01T07:23:38;67.60;;;17.02;;
46593;SDS011;35342;52.378;4.648;2023-03-01T07:26:04;80.78;;;16.17;;
46593;SDS011;35342;52.378;4.648;2023-03-01T07:28:30;74.43;;;14.82;;
46593;SDS011;35342;52.378;4.648;2023-03-01T07:31:01;104.93;;;14.00;;
46593;SDS011;35342;52.378;4.648;2023-03-01T07:33:28;70.57;;;13.02;;
46593;SDS011;35342;52.378;4.648;2023-03-01T07:35:57;62.67;;;11.93;;
46593;SDS011;35342;52.378;4.648;2023-03-01T07:38:25;71.47;;;13.20;;
46593;SDS011;35342;52.378;4.648;2023-03-01T07:40:53;72.75;;;11.48;;
46593;SDS011;35342;52.378;4.648;2023-03-01T07:43:22;107.50;;;13.48;;
46593;SDS011;35342;52.378;4.648;2023-03-01T07:45:48;51.88;;;10.80;;
46593;SDS011;35342;52.378;4.648;2023-03-01T07:48:14;60.45;;;9.93;;
46593;SDS011;35342;52.378;4.648;2023-03-01T07:50:40;54.05;;;11.40;;
46593;SDS011;35342;52.378;4.648;2023-03-01T07:53:05;107.72;;;12.18;;
46593;SDS011;35342;52.378;4.648;2023-03-01T07:55:31;55.40;;;10.85;;
46593;SDS011;35342;52.378;4.648;2023-03-01T07:57:57;73.00;;;11.27;;
46593;SDS011;35342;52.378;4.648;2023-03-01T08:00:23;43.13;;;10.68;;
46593;SDS011;35342;52.378;4.648;2023-03-01T08:02:49;71.95;;;12.52;;
46593;SDS011;35342;52.378;4.648;2023-03-01T08:05:14;99.82;;;12.52;;
46593;SDS011;35342;52.378;4.648;2023-03-01T08:07:41;103.60;;;14.90;;
46593;SDS011;35342;52.378;4.648;2023-03-01T08:10:07;88.28;;;12.90;;
46593;SDS011;35342;52.378;4.648;2023-03-01T08:12:33;103.30;;;13.93;;
46593;SDS011;35342;52.378;4.648;2023-03-01T08:14:59;89.72;;;14.50;;
46593;SDS011;35342;52.378;4.648;2023-03-01T08:17:25;94.82;;;14.23;;
46593;SDS011;35342;52.378;4.648;2023-03-01T08:19:51;53.08;;;13.63;;
46593;SDS011;35342;52.378;4.648;2023-03-01T08:22:16;28.20;;;13.18;;
46593;SDS011;35342;52.378;4.648;2023-03-01T08:24:42;27.95;;;13.48;;
46593;SDS011;35342;52.378;4.648;2023-03-01T08:27:08;26.58;;;13.10;;
46593;SDS011;35342;52.378;4.648;2023-03-01T08:29:34;39.58;;;14.18;;
46593;SDS011;35342;52.378;4.648;2023-03-01T08:32:00;56.03;;;16.77;;
46593;SDS011;35342;52.378;4.648;2023-03-01T08:34:26;27.50;;;14.45;;
46593;SDS011;35342;52.378;4.648;2023-03-01T08:36:52;41.28;;;14.55;;
46593;SDS011;35342;52.378;4.648;2023-03-01T08:39:18;41.53;;;14.38;;
46593;SDS011;35342;52.378;4.648;2023-03-01T08:41:46;29.70;;;14.23;;
46593;SDS011;35342;52.378;4.648;2023-03-01T08:44:13;51.65;;;16.92;;
46593;SDS011;35342;52.378;4.648;2023-03-01T08:46:41;50.30;;;15.30;;
46593;SDS011;35342;52.378;4.648;2023-03-01T08:49:15;33.97;;;14.18;;
46593;SDS011;35342;52.378;4.648;2023-03-01T08:51:44;45.85;;;14.40;;
46593;SDS011;35342;52.378;4.648;2023-03-01T08:54:13;34.78;;;13.25;;
46593;SDS011;35342;52.378;4.648;2023-03-01T08:56:41;55.60;;;14.90;;
46593;SDS011;35342;52.378;4.648;2023-03-01T08:59:08;58.88;;;14.63;;
46593;SDS011;35342;52.378;4.648;2023-03-01T09:01:36;35.83;;;16.45;;
46593;SDS011;35342;52.378;4.648;2023-03-01T09:04:02;53.17;;;15.77;;
46593;SDS011;35342;52.378;4.648;2023-03-01T09:06:30;43.58;;;16.10;;
46593;SDS011;35342;52.378;4.648;2023-03-01T09:08:58;45.05;;;15.65;;
46593;SDS011;35342;52.378;4.648;2023-03-01T09:11:24;28.63;;;14.48;;
46593;SDS011;35342;52.378;4.648;2023-03-01T09:13:50;65.63;;;17.85;;
46593;SDS011;35342;52.378;4.648;2023-03-01T09:16:17;49.25;;;15.68;;
46593;SDS011;35342;52.378;4.648;2023-03-01T09:18:47;81.97;;;16.73;;
46593;SDS011;35342;52.378;4.648;2023-03-01T09:21:19;35.03;;;16.17;;
46593;SDS011;35342;52.378;4.648;2023-03-01T09:23:47;36.17;;;16.00;;
46593;SDS011;35342;52.378;4.648;2023-03-01T09:26:15;35.42;;;14.45;;
46593;SDS011;35342;52.378;4.648;2023-03-01T09:28:44;37.63;;;15.43;;
46593;SDS011;35342;52.378;4.648;2023-03-01T09:31:11;50.47;;;17.27;;
46593;SDS011;35342;52.378;4.648;2023-03-01T09:33:39;40.13;;;16.98;;
46593;SDS011;35342;52.378;4.648;2023-03-01T09:36:07;36.42;;;15.25;;
46593;SDS011;35342;52.378;4.648;2023-03-01T09:38:39;28.30;;;15.93;;
46593;SDS011;35342;52.378;4.648;2023-03-01T09:43:52;26.55;;;14.98;;
46593;SDS011;35342;52.378;4.648;2023-03-01T09:46:25;26.80;;;15.65;;
46593;SDS011;35342;52.378;4.648;2023-03-01T09:48:55;31.95;;;17.02;;
46593;SDS011;35342;52.378;4.648;2023-03-01T09:51:33;24.73;;;15.98;;
46593;SDS011;35342;52.378;4.648;2023-03-01T09:54:01;32.40;;;17.25;;
46593;SDS011;35342;52.378;4.648;2023-03-01T09:56:33;27.20;;;15.85;;
46593;SDS011;35342;52.378;4.648;2023-03-01T10:04:41;25.45;;;16.17;;
46593;SDS011;35342;52.378;4.648;2023-03-01T10:07:17;26.95;;;16.38;;
46593;SDS011;35342;52.378;4.648;2023-03-01T10:10:28;27.17;;;16.90;;
46593;SDS011;35342;52.378;4.648;2023-03-01T10:12:59;28.90;;;17.67;;
46593;SDS011;35342;52.378;4.648;2023-03-01T10:16:11;32.78;;;17.65;;
46593;SDS011;35342;52.378;4.648;2023-03-01T10:18:46;29.90;;;18.70;;
46593;SDS011;35342;52.378;4.648;2023-03-01T10:21:23;37.83;;;19.65;;
46593;SDS011;35342;52.378;4.648;2023-03-01T10:23:51;26.90;;;17.35;;
46593;SDS011;35342;52.378;4.648;2023-03-01T10:26:34;26.02;;;16.23;;
46593;SDS011;35342;52.378;4.648;2023-03-01T10:29:26;25.83;;;15.98;;
46593;SDS011;35342;52.378;4.648;2023-03-01T10:32:02;30.30;;;16.85;;
46593;SDS011;35342;52.378;4.648;2023-03-01T10:34:31;31.17;;;17.02;;
46593;SDS011;35342;52.378;4.648;2023-03-01T10:37:12;28.15;;;17.00;;
46593;SDS011;35342;52.378;4.648;2023-03-01T10:42:46;25.75;;;14.32;;
46593;SDS011;35342;52.378;4.648;2023-03-01T10:45:16;21.55;;;13.85;;
46593;SDS011;35342;52.378;4.648;2023-03-01T10:47:42;18.42;;;12.75;;
46593;SDS011;35342;52.378;4.648;2023-03-01T10:50:17;24.15;;;13.40;;
46593;SDS011;35342;52.378;4.648;2023-03-01T10:53:00;19.60;;;12.68;;
46593;SDS011;35342;52.378;4.648;2023-03-01T10:55:38;17.92;;;11.25;;
46593;SDS011;35342;52.378;4.648;2023-03-01T11:03:29;18.50;;;11.13;;
46593;SDS011;35342;52.378;4.648;2023-03-01T11:06:00;15.60;;;9.40;;
46593;SDS011;35342;52.378;4.648;2023-03-01T11:08:42;14.55;;;8.77;;
46593;SDS011;35342;52.378;4.648;2023-03-01T11:11:18;13.80;;;9.32;;
46593;SDS011;35342;52.378;4.648;2023-03-01T11:20:01;11.48;;;7.28;;
46593;SDS011;35342;52.378;4.648;2023-03-01T11:22:45;10.93;;;6.82;;
46593;SDS011;35342;52.378;4.648;2023-03-01T11:25:35;10.65;;;8.48;;
46593;SDS011;35342;52.378;4.648;2023-03-01T11:28:06;10.13;;;6.65;;
46593;SDS011;35342;52.378;4.648;2023-03-01T11:30:45;11.32;;;6.35;;
46593;SDS011;35342;52.378;4.648;2023-03-01T11:36:07;10.98;;;6.82;;
46593;SDS011;35342;52.378;4.648;2023-03-01T11:38:52;10.85;;;7.00;;
46593;SDS011;35342;52.378;4.648;2023-03-01T11:41:20;11.23;;;7.82;;
46593;SDS011;35342;52.378;4.648;2023-03-01T12:04:19;8.88;;;6.90;;
46593;SDS011;35342;52.378;4.648;2023-03-01T12:24:21;9.35;;;5.53;;
46593;SDS011;35342;52.378;4.648;2023-03-01T12:36:52;9.95;;;6.55;;
46593;SDS011;35342;52.378;4.648;2023-03-01T12:42:31;15.27;;;7.45;;
46593;SDS011;35342;52.378;4.648;2023-03-01T12:45:31;14.15;;;8.30;;
46593;SDS011;35342;52.378;4.648;2023-03-01T12:48:38;11.65;;;7.80;;
46593;SDS011;35342;52.378;4.648;2023-03-01T12:51:21;11.52;;;7.45;;
46593;SDS011;35342;52.378;4.648;2023-03-01T12:53:53;11.55;;;7.05;;
46593;SDS011;35342;52.378;4.648;2023-03-01T12:56:27;9.88;;;7.32;;
46593;SDS011;35342;52.378;4.648;2023-03-01T13:13:02;11.57;;;6.43;;
46593;SDS011;35342;52.378;4.648;2023-03-01T13:15:39;12.32;;;7.40;;
46593;SDS011;35342;52.378;4.648;2023-03-01T13:37:08;10.70;;;7.00;;
46593;SDS011;35342;52.378;4.648;2023-03-01T13:41:53;7.78;;;5.80;;
46593;SDS011;35342;52.378;4.648;2023-03-01T13:46:51;10.77;;;7.57;;
46593;SDS011;35342;52.378;4.648;2023-03-01T13:49:48;12.27;;;5.82;;
46593;SDS011;35342;52.378;4.648;2023-03-01T13:55:18;8.82;;;6.30;;
46593;SDS011;35342;52.378;4.648;2023-03-01T13:57:49;11.48;;;6.30;;
46593;SDS011;35342;52.378;4.648;2023-03-01T14:03:13;12.98;;;6.95;;
46593;SDS011;35342;52.378;4.648;2023-03-01T14:05:42;14.57;;;7.50;;
46593;SDS011;35342;52.378;4.648;2023-03-01T14:08:24;8.80;;;6.35;;
46593;SDS011;35342;52.378;4.648;2023-03-01T14:16:33;19.65;;;8.50;;
46593;SDS011;35342;52.378;4.648;2023-03-01T14:19:23;9.07;;;6.15;;
46593;SDS011;35342;52.378;4.648;2023-03-01T14:22:02;15.18;;;8.20;;
46593;SDS011;35342;52.378;4.648;2023-03-01T14:24:46;16.08;;;7.43;;
46593;SDS011;35342;52.378;4.648;2023-03-01T14:27:19;12.02;;;7.00;;
46593;SDS011;35342;52.378;4.648;2023-03-01T14:33:18;8.63;;;5.63;;
46593;SDS011;35342;52.378;4.648;2023-03-01T14:36:04;12.05;;;7.55;;
46593;SDS011;35342;52.378;4.648;2023-03-01T14:41:16;13.23;;;7.70;;
46593;SDS011;35342;52.378;4.648;2023-03-01T14:43:50;12.13;;;7.78;;
46593;SDS011;35342;52.378;4.648;2023-03-01T14:46:24;13.52;;;8.43;;
46593;SDS011;35342;52.378;4.648;2023-03-01T14:51:42;11.43;;;7.25;;
46593;SDS011;35342;52.378;4.648;2023-03-01T14:54:24;15.30;;;7.38;;
46593;SDS011;35342;52.378;4.648;2023-03-01T14:57:15;10.68;;;7.22;;
46593;SDS011;35342;52.378;4.648;2023-03-01T14:59:49;10.93;;;6.78;;
46593;SDS011;35342;52.378;4.648;2023-03-01T15:02:20;12.50;;;6.72;;
46593;SDS011;35342;52.378;4.648;2023-03-01T15:04:49;11.68;;;6.28;;
46593;SDS011;35342;52.378;4.648;2023-03-01T15:07:21;8.90;;;5.25;;
46593;SDS011;35342;52.378;4.648;2023-03-01T15:09:51;11.55;;;6.97;;
46593;SDS011;35342;52.378;4.648;2023-03-01T15:14:52;10.63;;;6.22;;
46593;SDS011;35342;52.378;4.648;2023-03-01T15:17:26;11.45;;;5.93;;
46593;SDS011;35342;52.378;4.648;2023-03-01T15:20:03;11.65;;;6.32;;
46593;SDS011;35342;52.378;4.648;2023-03-01T15:22:42;10.25;;;5.90;;
46593;SDS011;35342;52.378;4.648;2023-03-01T15:25:20;9.60;;;5.63;;
46593;SDS011;35342;52.378;4.648;2023-03-01T15:27:51;12.15;;;5.38;;
46593;SDS011;35342;52.378;4.648;2023-03-01T15:30:26;8.45;;;5.65;;
46593;SDS011;35342;52.378;4.648;2023-03-01T15:35:58;8.68;;;5.50;;
46593;SDS011;35342;52.378;4.648;2023-03-01T15:38:31;8.15;;;5.40;;
46593;SDS011;35342;52.378;4.648;2023-03-01T15:41:29;8.23;;;5.80;;
46593;SDS011;35342;52.378;4.648;2023-03-01T15:44:15;9.35;;;5.88;;
46593;SDS011;35342;52.378;4.648;2023-03-01T15:46:49;9.63;;;5.72;;
46593;SDS011;35342;52.378;4.648;2023-03-01T15:51:49;11.30;;;4.85;;
46593;SDS011;35342;52.378;4.648;2023-03-01T15:54:20;10.18;;;4.93;;
46593;SDS011;35342;52.378;4.648;2023-03-01T15:56:49;10.77;;;5.47;;
46593;SDS011;35342;52.378;4.648;2023-03-01T15:59:15;7.05;;;4.55;;
46593;SDS011;35342;52.378;4.648;2023-03-01T16:01:43;9.20;;;5.35;;
46593;SDS011;35342;52.378;4.648;2023-03-01T16:04:10;8.85;;;4.32;;
46593;SDS011;35342;52.378;4.648;2023-03-01T16:06:54;6.22;;;4.68;;
46593;SDS011;35342;52.378;4.648;2023-03-01T16:09:24;6.30;;;3.92;;
46593;SDS011;35342;52.378;4.648;2023-03-01T16:11:51;8.95;;;4.60;;
46593;SDS011;35342;52.378;4.648;2023-03-01T16:14:18;8.10;;;4.80;;
46593;SDS011;35342;52.378;4.648;2023-03-01T16:16:45;6.88;;;4.50;;
46593;SDS011;35342;52.378;4.648;2023-03-01T16:19:12;11.93;;;5.40;;
46593;SDS011;35342;52.378;4.648;2023-03-01T16:21:40;10.90;;;4.90;;
46593;SDS011;35342;52.378;4.648;2023-03-01T16:24:08;7.03;;;4.72;;
46593;SDS011;35342;52.378;4.648;2023-03-01T16:26:35;7.53;;;5.13;;
46593;SDS011;35342;52.378;4.648;2023-03-01T16:29:02;9.00;;;5.85;;
46593;SDS011;35342;52.378;4.648;2023-03-01T16:31:29;8.55;;;4.40;;
46593;SDS011;35342;52.378;4.648;2023-03-01T16:33:56;8.05;;;5.07;;
46593;SDS011;35342;52.378;4.648;2023-03-01T16:36:24;9.88;;;5.82;;
46593;SDS011;35342;52.378;4.648;2023-03-01T16:38:53;9.68;;;5.68;;
46593;SDS011;35342;52.378;4.648;2023-03-01T16:41:21;9.35;;;5.93;;
46593;SDS011;35342;52.378;4.648;2023-03-01T16:43:48;7.45;;;5.10;;
46593;SDS011;35342;52.378;4.648;2023-03-01T16:48:46;9.55;;;5.90;;
46593;SDS011;35342;52.378;4.648;2023-03-01T16:51:13;11.50;;;6.57;;
46593;SDS011;35342;52.378;4.648;2023-03-01T16:53:39;10.00;;;5.32;;
46593;SDS011;35342;52.378;4.648;2023-03-01T16:56:07;11.27;;;6.07;;
46593;SDS011;35342;52.378;4.648;2023-03-01T16:58:37;9.00;;;5.70;;
46593;SDS011;35342;52.378;4.648;2023-03-01T17:01:22;9.68;;;5.88;;
46593;SDS011;35342;52.378;4.648;2023-03-01T17:03:50;11.80;;;7.47;;
46593;SDS011;35342;52.378;4.648;2023-03-01T17:06:17;9.55;;;6.47;;
46593;SDS011;35342;52.378;4.648;2023-03-01T17:08:45;11.07;;;6.85;;
46593;SDS011;35342;52.378;4.648;2023-03-01T17:11:13;11.57;;;6.40;;
46593;SDS011;35342;52.378;4.648;2023-03-01T17:13:42;11.73;;;7.15;;
46593;SDS011;35342;52.378;4.648;2023-03-01T17:16:09;13.10;;;7.70;;
46593;SDS011;35342;52.378;4.648;2023-03-01T17:18:39;11.57;;;7.60;;
46593;SDS011;35342;52.378;4.648;2023-03-01T17:21:05;15.32;;;8.25;;